Time;durP1;ratioP1;P1;durP2;ratioP2;P2;SDS_P1;SDS_P2;PMS_P1;PMS_P2;Temp;Humidity;BMP_temperature;BMP_pressure;BME280_temperature;BME280_humidity;BME280_pressure;Samples;Min_cycle;Max_cycle;Signal;HPM_P1;HPM_P2
2023/04/26 00:02:03;;;;;;;12.18;3.40;;;;;;;2.70;87.02;99517.47;5052415;28;20140;-59
2023/04/26 00:04:30;;;;;;;10.00;3.42;;;;;;;2.75;87.12;99520.38;5050874;28;20053;-59
2023/04/26 00:06:59;;;;;;;9.23;3.40;;;;;;;2.77;86.95;99526.31;5058534;28;20058;-59
2023/04/26 00:09:26;;;;;;;7.03;2.75;;;;;;;2.73;86.86;99529.50;5056691;28;20560;-59
2023/04/26 00:11:53;;;;;;;9.90;3.20;;;;;;;2.59;87.42;99529.31;5050150;28;20049;-60
2023/04/26 00:14:20;;;;;;;9.88;3.33;;;;;;;2.65;88.12;99527.78;5055742;28;20436;-59
2023/04/26 00:16:48;;;;;;;7.07;3.58;;;;;;;2.62;88.00;99522.84;5062067;28;20041;-59
2023/04/26 00:19:16;;;;;;;11.25;3.70;;;;;;;2.65;89.38;99526.97;5062432;28;20174;-60
2023/04/26 00:21:43;;;;;;;13.45;4.00;;;;;;;2.47;89.17;99524.66;5052908;28;20048;-60
2023/04/26 00:24:10;;;;;;;9.27;3.45;;;;;;;2.33;89.32;99524.50;5054478;28;20148;-59
2023/04/26 00:26:37;;;;;;;8.65;3.42;;;;;;;2.31;88.87;99518.56;5059112;28;20518;-60
2023/04/26 00:29:04;;;;;;;10.70;3.60;;;;;;;2.26;90.12;99517.47;5057964;28;20052;-60
2023/04/26 00:31:31;;;;;;;11.00;3.63;;;;;;;2.21;90.40;99512.72;5061808;28;20052;-60
2023/04/26 00:34:00;;;;;;;8.32;3.40;;;;;;;2.22;90.26;99511.72;5048440;28;20135;-59
2023/04/26 00:36:27;;;;;;;9.40;3.45;;;;;;;2.18;90.57;99517.56;5057668;28;20087;-59
2023/04/26 00:38:54;;;;;;;6.32;3.35;;;;;;;2.14;90.42;99509.97;5054701;28;20072;-60
2023/04/26 00:41:21;;;;;;;8.82;3.70;;;;;;;2.08;91.48;99513.34;5055537;28;20118;-58
2023/04/26 00:43:48;;;;;;;7.75;3.63;;;;;;;2.23;94.64;99521.28;5052086;28;20124;-58
2023/04/26 00:46:15;;;;;;;5.47;3.05;;;;;;;1.84;93.19;99511.75;5053606;28;20037;-58
2023/04/26 00:48:42;;;;;;;9.25;3.85;;;;;;;1.80;92.90;99504.34;5052209;28;20091;-60
2023/04/26 00:51:11;;;;;;;6.60;3.38;;;;;;;1.74;93.43;99508.53;5057866;28;20044;-59
2023/04/26 00:53:38;;;;;;;10.30;3.30;;;;;;;1.65;93.32;99512.25;5054804;28;20040;-59
2023/04/26 00:56:06;;;;;;;11.82;3.70;;;;;;;1.90;92.19;99503.09;5054249;28;20127;-59
2023/04/26 00:58:33;;;;;;;11.38;3.75;;;;;;;1.96;91.96;99498.91;5060817;28;20058;-59
2023/04/26 01:01:01;;;;;;;10.02;4.03;;;;;;;1.94;91.86;99496.44;5053609;28;20044;-59
2023/04/26 01:03:28;;;;;;;9.75;3.90;;;;;;;2.36;96.97;99492.38;5061873;28;20143;-59
2023/04/26 01:05:55;;;;;;;8.63;3.88;;;;;;;2.25;91.28;99495.50;5057042;28;20509;-59
2023/04/26 01:08:24;;;;;;;9.93;3.80;;;;;;;2.21;95.11;99499.50;5056201;28;20052;-59
2023/04/26 01:10:51;;;;;;;8.82;4.18;;;;;;;2.28;94.36;99500.41;5054214;28;20098;-59
2023/04/26 01:13:18;;;;;;;13.15;4.07;;;;;;;2.23;90.41;99502.78;5055007;28;20131;-59
2023/04/26 01:15:47;;;;;;;8.50;3.65;;;;;;;2.25;95.97;99502.59;5050787;28;20382;-60
2023/04/26 01:18:14;;;;;;;10.30;3.55;;;;;;;2.08;93.46;99505.41;5057973;28;20148;-59
2023/04/26 01:20:42;;;;;;;12.40;3.83;;;;;;;1.53;94.06;99508.38;5052796;28;20061;-59
2023/04/26 01:23:11;;;;;;;6.40;3.80;;;;;;;1.38;96.88;99506.50;5060140;28;20047;-60
2023/04/26 01:25:39;;;;;;;8.35;4.18;;;;;;;1.89;100.00;99511.19;5056509;28;20062;-60
2023/04/26 01:28:06;;;;;;;8.32;4.07;;;;;;;2.13;96.43;99512.81;5053084;28;20458;-60
2023/04/26 01:30:33;;;;;;;12.95;4.80;;;;;;;2.29;96.31;99509.97;5060321;28;20056;-59
2023/04/26 01:33:03;;;;;;;10.73;3.20;;;;;;;2.36;96.34;99508.25;5055354;28;20047;-59
2023/04/26 01:35:30;;;;;;;13.57;4.25;;;;;;;2.51;95.97;99504.78;5050448;28;20041;-59
2023/04/26 01:37:57;;;;;;;10.40;3.58;;;;;;;2.48;93.66;99499.88;5056020;28;20125;-59
2023/04/26 01:40:25;;;;;;;7.47;4.03;;;;;;;1.89;94.23;99501.44;5037312;28;20255;-59
2023/04/26 01:42:52;;;;;;;11.20;3.83;;;;;;;1.82;95.20;99502.34;5057442;28;20045;-59
2023/04/26 01:45:20;;;;;;;13.63;4.20;;;;;;;1.69;97.38;99501.13;5073208;28;20300;-59
2023/04/26 01:48:07;;;;;;;7.38;4.10;;;;;;;1.56;98.11;99506.19;5058042;28;20111;-59
2023/04/26 01:50:34;;;;;;;10.48;3.70;;;;;;;1.48;99.73;99509.72;5061716;28;20421;-60
2023/04/26 01:53:01;;;;;;;11.30;3.80;;;;;;;1.74;100.00;99508.53;5050062;28;20040;-60
2023/04/26 01:55:30;;;;;;;8.90;3.40;;;;;;;1.13;99.05;99505.03;5059096;28;20053;-59
2023/04/26 01:57:57;;;;;;;10.93;3.92;;;;;;;0.83;99.53;99504.88;5054200;28;20064;-59
2023/04/26 02:00:24;;;;;;;9.90;3.95;;;;;;;0.75;100.00;99504.88;5055416;28;20044;-59
2023/04/26 02:02:54;;;;;;;10.50;4.25;;;;;;;0.95;100.00;99502.63;5054735;28;20053;-59
2023/04/26 02:05:23;;;;;;;10.75;4.97;;;;;;;0.92;99.94;99503.00;5051637;28;20052;-59
2023/04/26 02:07:51;;;;;;;10.35;4.40;;;;;;;1.01;100.00;99501.97;5050818;28;20233;-59
2023/04/26 02:10:18;;;;;;;13.48;4.22;;;;;;;1.00;98.88;99501.13;5050445;28;20051;-60
2023/04/26 02:12:46;;;;;;;10.45;4.20;;;;;;;1.05;98.41;99505.91;5053722;28;20082;-60
2023/04/26 02:15:14;;;;;;;10.18;4.10;;;;;;;0.91;98.40;99504.00;5055429;28;20044;-60
2023/04/26 02:17:41;;;;;;;10.23;4.05;;;;;;;1.18;100.00;99510.59;5054851;28;20065;-59
2023/04/26 02:20:10;;;;;;;8.98;4.30;;;;;;;1.03;100.00;99511.34;5055329;28;20337;-59
2023/04/26 02:22:37;;;;;;;10.60;3.92;;;;;;;0.72;99.17;99503.41;5061806;28;20453;-59
2023/04/26 02:25:05;;;;;;;9.90;4.45;;;;;;;0.91;100.00;99496.91;5058314;28;20376;-60
2023/04/26 02:27:33;;;;;;;6.32;3.67;;;;;;;0.62;98.43;99511.56;5050388;28;20491;-59
2023/04/26 02:30:02;;;;;;;11.40;4.35;;;;;;;0.53;100.00;99514.41;5060198;28;20074;-60
2023/04/26 02:32:29;;;;;;;7.97;4.63;;;;;;;0.66;100.00;99513.84;5038323;28;20139;-60
2023/04/26 02:34:57;;;;;;;16.95;5.03;;;;;;;0.76;100.00;99507.34;5053919;28;20051;-59
2023/04/26 02:37:25;;;;;;;13.63;4.60;;;;;;;0.80;100.00;99508.66;5053675;28;20048;-60
2023/04/26 02:39:53;;;;;;;13.18;5.32;;;;;;;0.70;100.00;99500.16;5058158;28;20048;-59
2023/04/26 02:42:20;;;;;;;10.70;5.10;;;;;;;0.78;100.00;99507.19;5026023;28;20118;-60
2023/04/26 02:44:47;;;;;;;14.75;5.22;;;;;;;0.85;100.00;99498.41;5036113;28;20067;-59
2023/04/26 02:47:15;;;;;;;9.60;4.40;;;;;;;0.78;100.00;99494.81;5022125;28;20037;-59
2023/04/26 02:49:43;;;;;;;12.05;5.25;;;;;;;0.86;100.00;99504.50;5024725;28;20475;-59
2023/04/26 02:52:10;;;;;;;13.18;4.93;;;;;;;0.77;100.00;99505.53;5037606;28;20370;-59
2023/04/26 02:54:41;;;;;;;14.52;4.75;;;;;;;0.86;100.00;99494.78;5046272;28;20044;-60
2023/04/26 02:57:08;;;;;;;10.40;4.65;;;;;;;0.78;100.00;99500.09;5062062;28;20151;-59
2023/04/26 02:59:35;;;;;;;9.38;4.55;;;;;;;0.71;100.00;99500.97;5062124;28;20052;-59
2023/04/26 03:02:02;;;;;;;9.40;4.63;;;;;;;0.37;100.00;99500.25;5062845;28;20506;-59
2023/04/26 03:04:32;;;;;;;17.00;5.47;;;;;;;0.47;100.00;99504.50;5064861;28;20047;-59
2023/04/26 03:07:00;;;;;;;14.27;4.97;;;;;;;0.47;100.00;99512.41;5079504;28;20393;-59
2023/04/26 03:09:27;;;;;;;12.68;4.20;;;;;;;0.10;100.00;99511.19;5063119;28;20045;-59
2023/04/26 03:11:54;;;;;;;11.52;4.68;;;;;;;-0.01;100.00;99507.91;5058336;28;20372;-59
2023/04/26 03:14:21;;;;;;;13.40;5.57;;;;;;;-0.30;100.00;99516.38;5056506;28;20498;-59
2023/04/26 03:16:49;;;;;;;8.63;4.95;;;;;;;-0.14;100.00;99509.44;5053290;28;20186;-59
2023/04/26 03:19:16;;;;;;;10.38;5.00;;;;;;;0.11;100.00;99503.13;5059511;28;20041;-59
2023/04/26 03:21:45;;;;;;;12.73;4.95;;;;;;;-0.06;100.00;99506.78;5040956;28;20049;-59
2023/04/26 03:24:11;;;;;;;15.38;5.00;;;;;;;0.15;100.00;99507.09;5037313;28;20042;-59
2023/04/26 03:26:39;;;;;;;12.52;5.40;;;;;;;0.13;100.00;99501.16;5034032;28;20033;-59
2023/04/26 03:29:07;;;;;;;10.15;4.78;;;;;;;0.08;100.00;99500.03;5036178;28;20060;-60
2023/04/26 03:31:34;;;;;;;13.10;4.93;;;;;;;-0.47;100.00;99501.56;5067208;28;20147;-59
2023/04/26 03:34:01;;;;;;;9.95;4.28;;;;;;;-0.69;100.00;99495.13;5056802;28;20105;-59
2023/04/26 03:36:28;;;;;;;11.93;4.95;;;;;;;-0.67;100.00;99496.59;5056229;28;20048;-59
2023/04/26 03:38:57;;;;;;;9.05;4.72;;;;;;;-0.79;100.00;99492.63;5053023;28;20048;-59
2023/04/26 03:41:24;;;;;;;10.38;4.50;;;;;;;-1.07;100.00;99494.72;5060040;28;20045;-59
2023/04/26 03:43:53;;;;;;;9.70;4.75;;;;;;;-0.61;100.00;99487.22;5053458;28;20084;-59
2023/04/26 03:46:20;;;;;;;10.82;5.00;;;;;;;-0.77;100.00;99485.41;5056221;28;20048;-59
2023/04/26 03:48:48;;;;;;;11.07;4.95;;;;;;;-0.74;100.00;99487.72;5058613;28;20036;-59
2023/04/26 03:51:15;;;;;;;10.57;4.70;;;;;;;-0.76;100.00;99484.41;5059864;28;20040;-60
2023/04/26 03:53:42;;;;;;;11.30;5.57;;;;;;;-0.66;100.00;99489.53;5055049;28;20068;-60
2023/04/26 03:56:11;;;;;;;8.85;4.57;;;;;;;-0.72;100.00;99490.19;5063558;28;20045;-59
2023/04/26 03:58:38;;;;;;;12.93;4.82;;;;;;;-0.85;100.00;99493.28;5058518;28;20037;-59
2023/04/26 04:01:05;;;;;;;12.77;4.97;;;;;;;-0.58;100.00;99488.69;5078824;28;20113;-59
2023/04/26 04:03:32;;;;;;;9.23;5.07;;;;;;;-0.60;100.00;99498.56;5061839;28;20047;-60
2023/04/26 04:06:00;;;;;;;9.85;5.10;;;;;;;-0.64;100.00;99490.19;5056317;28;20160;-59
2023/04/26 04:08:27;;;;;;;13.23;5.60;;;;;;;-0.54;100.00;99490.03;5058331;28;20047;-58
2023/04/26 04:10:54;;;;;;;9.35;5.25;;;;;;;-0.52;100.00;99491.50;5053433;28;20041;-60
2023/04/26 04:13:22;;;;;;;11.63;5.03;;;;;;;-0.50;100.00;99491.31;5059151;28;20574;-59
2023/04/26 04:15:49;;;;;;;11.55;4.90;;;;;;;-0.53;100.00;99497.75;5072500;28;20143;-60
2023/04/26 04:18:16;;;;;;;10.80;5.72;;;;;;;-0.27;100.00;99502.84;5057530;28;20057;-59
2023/04/26 04:20:43;;;;;;;8.52;5.03;;;;;;;-0.26;100.00;99501.84;5054172;28;20041;-59
2023/04/26 04:23:10;;;;;;;10.35;4.60;;;;;;;0.01;100.00;99501.69;5055514;28;20052;-59
2023/04/26 04:25:39;;;;;;;8.80;5.03;;;;;;;0.11;100.00;99500.50;5060172;28;20072;-59
2023/04/26 04:28:10;;;;;;;12.63;6.10;;;;;;;0.51;100.00;99501.38;5069411;28;20072;-59
2023/04/26 04:30:39;;;;;;;12.18;7.38;;;;;;;1.15;100.00;99503.84;5060183;28;20044;-59
2023/04/26 04:33:06;;;;;;;14.68;6.22;;;;;;;1.51;99.09;99508.56;5051241;28;21485;-59
2023/04/26 04:35:35;;;;;;;11.75;5.63;;;;;;;1.35;94.07;99525.34;5058301;28;20044;-60
2023/04/26 04:38:04;;;;;;;9.27;4.93;;;;;;;1.84;92.00;99519.66;5057256;28;20483;-59
2023/04/26 04:40:35;;;;;;;10.73;4.95;;;;;;;2.64;87.07;99525.31;5072960;28;20048;-59
2023/04/26 04:43:05;;;;;;;9.55;4.93;;;;;;;2.64;91.37;99530.59;5051268;28;20072;-59
2023/04/26 04:45:34;;;;;;;10.32;6.15;;;;;;;3.99;86.18;99528.13;5055706;28;20355;-59
2023/04/26 04:48:03;;;;;;;10.85;5.75;;;;;;;4.42;75.60;99535.16;5054184;28;20340;-59
2023/04/26 04:50:31;;;;;;;15.43;5.68;;;;;;;4.14;77.53;99537.84;5053873;28;20525;-60
2023/04/26 04:52:58;;;;;;;12.07;5.38;;;;;;;4.26;77.73;99536.28;5054794;28;20048;-59
2023/04/26 04:55:25;;;;;;;7.90;4.03;;;;;;;5.04;73.70;99539.59;5056154;28;20057;-59
2023/04/26 04:57:53;;;;;;;10.52;4.95;;;;;;;5.33;69.53;99543.75;5052392;28;20051;-59
2023/04/26 05:00:21;;;;;;;10.80;4.97;;;;;;;6.11;65.72;99545.91;5052619;28;20039;-60
2023/04/26 05:03:02;;;;;;;9.80;4.63;;;;;;;5.04;69.23;99539.59;5059888;28;20366;-60
2023/04/26 05:05:30;;;;;;;7.32;4.78;;;;;;;3.35;77.84;99544.09;5057048;28;20052;-60
2023/04/26 05:07:57;;;;;;;8.90;4.20;;;;;;;2.85;81.83;99543.91;5057048;28;20099;-59
2023/04/26 05:10:24;;;;;;;12.75;4.90;;;;;;;2.67;83.14;99540.81;5063082;28;20040;-58
2023/04/26 05:12:53;;;;;;;10.48;5.18;;;;;;;3.48;81.61;99544.22;5054065;28;20041;-59
2023/04/26 05:15:21;;;;;;;13.23;5.18;;;;;;;4.11;79.67;99544.34;5051585;28;20045;-59
2023/04/26 05:17:48;;;;;;;9.48;4.90;;;;;;;3.34;79.59;99551.19;5050345;28;20380;-59
2023/04/26 05:20:20;;;;;;;8.57;4.82;;;;;;;3.74;78.65;99554.22;5053693;28;20483;-59
2023/04/26 05:22:47;;;;;;;8.10;4.78;;;;;;;3.76;79.57;99551.41;5063092;28;20110;-59
2023/04/26 05:25:15;;;;;;;11.63;5.10;;;;;;;4.92;76.83;99557.91;5057334;28;20045;-59
2023/04/26 05:27:44;;;;;;;7.10;4.53;;;;;;;5.83;71.06;99556.72;5055769;28;20449;-59
2023/04/26 05:30:47;;;;;;;7.22;4.63;;;;;;;4.88;72.91;99563.81;5041629;28;20294;-59
2023/04/26 05:33:38;;;;;;;10.35;4.78;;;;;;;4.98;71.97;99567.75;5052032;28;20271;-59
2023/04/26 05:36:17;;;;;;;10.10;5.38;;;;;;;6.08;68.89;99578.25;5047829;28;20041;-59
2023/04/26 05:38:45;;;;;;;12.80;6.22;;;;;;;5.26;72.01;99585.41;5057617;28;20056;-58
2023/04/26 05:41:12;;;;;;;8.13;5.55;;;;;;;5.44;71.99;99584.88;5052741;28;20059;-59
2023/04/26 05:43:39;;;;;;;12.13;5.25;;;;;;;4.98;72.93;99589.00;5056124;28;20044;-59
2023/04/26 05:46:06;;;;;;;14.57;7.03;;;;;;;4.82;73.95;99588.50;5038283;28;20380;-59
2023/04/26 05:48:33;;;;;;;12.45;5.72;;;;;;;3.91;78.15;99591.09;5020399;28;20111;-59
2023/04/26 05:51:01;;;;;;;11.32;5.28;;;;;;;4.95;76.68;99586.72;5030199;28;20551;-59
2023/04/26 05:53:30;;;;;;;11.65;6.22;;;;;;;4.77;75.22;99591.75;4987040;28;20509;-59
2023/04/26 05:55:57;;;;;;;11.10;6.45;;;;;;;5.31;74.60;99596.28;5004408;28;20515;-59
2023/04/26 05:58:25;;;;;;;9.55;5.72;;;;;;;7.99;66.47;99596.47;5027895;28;20522;-60
2023/04/26 06:00:52;;;;;;;10.70;6.20;;;;;;;8.15;60.45;99595.09;5021458;28;20475;-59
2023/04/26 06:03:19;;;;;;;13.48;6.53;;;;;;;7.32;65.59;99595.22;5014216;28;20072;-60
2023/04/26 06:05:46;;;;;;;14.23;7.60;;;;;;;6.16;69.92;99587.88;5036384;28;20043;-60
2023/04/26 06:08:13;;;;;;;12.55;6.22;;;;;;;5.28;72.77;99587.91;5041648;28;20064;-59
2023/04/26 06:10:41;;;;;;;15.00;6.93;;;;;;;5.36;72.91;99590.38;5045729;28;20403;-59
2023/04/26 06:13:08;;;;;;;9.73;6.28;;;;;;;7.63;65.55;99590.94;5021886;28;20052;-59
2023/04/26 06:15:37;;;;;;;11.27;6.82;;;;;;;9.01;59.03;99587.31;5020706;28;20124;-59
2023/04/26 06:18:04;;;;;;;8.98;6.10;;;;;;;10.29;55.55;99598.75;5011700;28;20037;-60
2023/04/26 06:20:32;;;;;;;9.88;5.63;;;;;;;10.76;54.50;99593.41;5015244;28;20050;-67
2023/04/26 06:22:59;;;;;;;9.52;5.60;;;;;;;10.22;54.54;99593.47;5026344;28;20042;-58
2023/04/26 06:25:26;;;;;;;10.40;5.10;;;;;;;9.90;56.95;99592.94;5045836;28;20140;-58
2023/04/26 06:27:57;;;;;;;9.07;5.43;;;;;;;11.74;51.59;99591.59;5041640;28;20072;-58
2023/04/26 06:30:25;;;;;;;9.60;5.95;;;;;;;13.12;47.90;99599.09;5058318;28;20138;-58
2023/04/26 06:32:53;;;;;;;10.27;4.35;;;;;;;11.95;48.34;99608.09;5060581;28;20051;-58
2023/04/26 06:35:22;;;;;;;12.82;7.07;;;;;;;12.38;49.79;99609.34;5060552;28;20619;-59
2023/04/26 06:37:49;;;;;;;10.93;4.80;;;;;;;12.84;47.03;99602.78;5052437;28;20047;-59
2023/04/26 06:40:16;;;;;;;8.95;4.47;;;;;;;10.93;51.07;99613.09;5056826;28;20549;-59
2023/04/26 06:42:44;;;;;;;7.47;4.45;;;;;;;12.24;49.45;99615.06;5060045;28;20139;-59
2023/04/26 06:45:18;;;;;;;10.68;5.15;;;;;;;12.65;47.38;99610.31;5053355;28;20616;-59
2023/04/26 06:47:46;;;;;;;10.73;5.03;;;;;;;13.17;47.64;99617.19;5051918;28;20047;-59
2023/04/26 06:50:13;;;;;;;7.68;4.53;;;;;;;14.13;45.44;99618.53;5061066;28;20047;-59
2023/04/26 06:52:40;;;;;;;9.65;3.92;;;;;;;13.92;45.42;99617.53;5053100;28;20048;-59
2023/04/26 06:55:08;;;;;;;12.63;4.70;;;;;;;14.14;44.53;99614.78;5057675;28;20040;-59
2023/04/26 06:57:35;;;;;;;10.48;4.63;;;;;;;12.40;46.78;99617.97;5059500;28;20159;-59
2023/04/26 07:00:03;;;;;;;9.50;4.75;;;;;;;13.12;45.50;99614.44;5055301;28;20559;-59
2023/04/26 07:05:28;;;;;;;12.88;5.18;;;;;;;11.68;49.50;99616.72;5247384;23;20048;-58
2023/04/26 07:07:56;;;;;;;10.50;4.77;;;;;;;10.86;51.10;99617.75;4901818;29;20055;-58
2023/04/26 07:10:26;;;;;;;12.02;5.03;;;;;;;11.59;50.13;99618.97;4903077;29;20052;-58
2023/04/26 07:12:54;;;;;;;10.85;5.90;;;;;;;12.11;49.16;99614.56;4922759;29;20062;-58
2023/04/26 07:15:22;;;;;;;10.23;5.38;;;;;;;13.36;45.70;99610.47;4922831;29;20071;-57
2023/04/26 07:17:49;;;;;;;8.88;4.80;;;;;;;14.08;45.16;99607.69;4916835;29;20051;-58
2023/04/26 07:20:19;;;;;;;13.15;5.90;;;;;;;14.83;43.66;99609.38;4927201;29;20095;-58
2023/04/26 07:22:47;;;;;;;;;;;;;;;13.42;45.51;99608.66;4923918;29;20062;-58
2023/04/26 07:25:15;;;;;;;13.30;6.18;;;;;;;14.12;44.80;99611.50;4940190;29;20628;-58
2023/04/26 07:27:42;;;;;;;21.73;6.90;;;;;;;14.17;44.28;99611.56;4926249;29;20031;-58
2023/04/26 07:30:10;;;;;;;15.57;6.60;;;;;;;14.11;44.61;99605.31;4928571;29;20561;-58
2023/04/26 07:32:39;;;;;;;17.35;6.60;;;;;;;14.24;45.59;99601.38;4922523;29;20055;-58
2023/04/26 07:35:09;;;;;;;16.15;7.82;;;;;;;14.51;44.00;99592.41;4918292;29;20048;-58
2023/04/26 07:37:36;;;;;;;15.77;6.78;;;;;;;14.34;44.34;99587.16;4924449;29;20470;-58
2023/04/26 07:40:07;;;;;;;19.70;7.35;;;;;;;13.94;44.35;99594.66;4920556;29;20487;-58
2023/04/26 07:42:36;;;;;;;21.23;7.20;;;;;;;13.29;46.92;99592.88;4927245;29;20583;-58
2023/04/26 07:45:03;;;;;;;18.40;8.35;;;;;;;12.20;48.07;99589.72;4920507;29;20139;-58
2023/04/26 07:47:31;;;;;;;20.60;7.13;;;;;;;11.55;49.06;99598.22;4918962;29;20052;-58
2023/04/26 07:49:59;;;;;;;14.32;7.15;;;;;;;11.89;49.86;99598.34;4924658;29;20147;-58
2023/04/26 07:52:26;;;;;;;18.10;6.93;;;;;;;12.45;48.52;99599.25;4926363;29;20063;-58
2023/04/26 07:54:54;;;;;;;21.30;6.45;;;;;;;12.65;47.75;99606.81;4911564;29;20071;-58
2023/04/26 07:57:23;;;;;;;16.33;6.53;;;;;;;11.39;50.40;99602.50;4907131;29;20045;-58
2023/04/26 07:59:50;;;;;;;18.33;7.57;;;;;;;11.85;51.36;99608.69;4908523;29;20064;-59
2023/04/26 08:02:18;;;;;;;23.70;7.00;;;;;;;11.73;51.42;99603.41;4908924;29;20070;-59
2023/04/26 08:04:48;;;;;;;16.17;7.30;;;;;;;12.46;49.88;99606.28;4911818;29;20056;-58
2023/04/26 08:07:16;;;;;;;19.05;6.88;;;;;;;11.04;50.66;99610.63;4920272;29;20044;-58
2023/04/26 08:09:43;;;;;;;19.92;7.55;;;;;;;12.38;49.68;99609.34;4937247;29;20039;-58
2023/04/26 08:12:11;;;;;;;14.73;6.32;;;;;;;11.89;49.31;99612.56;4937276;29;20051;-59
2023/04/26 08:14:40;;;;;;;13.50;6.43;;;;;;;12.41;48.89;99614.25;4937393;29;20044;-58
2023/04/26 08:17:08;;;;;;;14.73;6.68;;;;;;;13.47;47.13;99608.69;4930091;29;20044;-58
2023/04/26 08:19:36;;;;;;;13.15;6.72;;;;;;;13.29;45.40;99609.84;4918211;29;20059;-58
2023/04/26 08:22:04;;;;;;;20.13;7.43;;;;;;;12.95;45.74;99609.94;4915832;29;20048;-58
2023/04/26 08:27:20;;;;;;;12.98;6.70;;;;;;;11.73;47.78;99607.94;5140221;23;20103;-60
2023/04/26 08:29:49;;;;;;;14.68;6.50;;;;;;;11.27;47.93;99605.19;4952863;28;20044;-58
2023/04/26 08:32:16;;;;;;;14.07;6.90;;;;;;;11.07;50.74;99604.78;4953993;29;20401;-57
2023/04/26 08:34:43;;;;;;;17.15;6.80;;;;;;;10.65;49.87;99602.25;4955970;29;20051;-58
2023/04/26 08:37:10;;;;;;;19.45;7.22;;;;;;;11.24;49.40;99592.25;4941908;29;20047;-58
2023/04/26 08:39:37;;;;;;;13.13;5.88;;;;;;;11.66;48.41;99592.00;4936850;29;20071;-58
2023/04/26 08:42:11;;;;;;;16.15;6.18;;;;;;;10.23;51.38;99596.97;4936510;29;20445;-57
2023/04/26 08:44:38;;;;;;;16.15;7.10;;;;;;;10.06;51.37;99594.97;4937145;29;20074;-57
2023/04/26 08:47:07;;;;;;;14.43;6.78;;;;;;;10.82;50.81;99592.47;4949742;29;20547;-58
2023/04/26 08:49:40;;;;;;;17.35;6.75;;;;;;;10.43;49.78;99584.06;4956152;29;20075;-58
2023/04/26 08:52:09;;;;;;;17.17;6.47;;;;;;;10.92;51.13;99581.13;4953429;28;20050;-58
2023/04/26 08:54:36;;;;;;;14.30;6.60;;;;;;;11.19;49.01;99581.44;4955276;29;20162;-58
2023/04/26 08:57:03;;;;;;;16.23;7.47;;;;;;;9.76;50.96;99584.31;4942713;29;20044;-58
2023/04/26 08:59:31;;;;;;;12.90;5.90;;;;;;;9.14;52.21;99575.66;4936417;29;20040;-59
2023/04/26 09:01:59;;;;;;;12.80;6.30;;;;;;;10.31;52.10;99586.75;4936261;29;20055;-58
2023/04/26 09:04:27;;;;;;;13.50;5.95;;;;;;;10.08;51.24;99579.50;4936706;29;20043;-58
2023/04/26 09:24:12;;;;;;;14.23;5.00;;;;;;;11.21;47.83;99573.97;5451786;23;20067;-91
2023/04/26 09:30:36;;;;;;;12.77;5.03;;;;;;;10.92;48.39;99567.72;5172845;23;20062;-90
2023/04/26 09:33:29;;;;;;;;;;;;;;;;;;;;;
2023/04/26 09:44:36;;;;;;;9.82;5.07;;;;;;;9.49;51.56;99565.94;4952175;23;20126;-60
2023/04/26 09:47:04;;;;;;;11.00;6.15;;;;;;;9.55;51.60;99556.19;4935925;29;20039;-60
2023/04/26 09:49:32;;;;;;;14.07;5.97;;;;;;;9.48;52.25;99563.47;4934742;29;20142;-71
2023/04/26 09:52:03;;;;;;;13.88;5.53;;;;;;;10.90;49.32;99565.28;4943761;29;20142;-61
2023/04/26 09:54:46;;;;;;;18.40;5.90;;;;;;;12.54;45.52;99565.53;4917729;28;20049;-61
2023/04/26 09:57:14;;;;;;;15.43;5.10;;;;;;;13.88;41.91;99560.66;4938876;28;20062;-61
2023/04/26 09:59:46;;;;;;;12.43;5.82;;;;;;;13.57;42.98;99563.03;4936167;28;20516;-62
2023/04/26 10:02:19;;;;;;;13.15;5.45;;;;;;;13.30;43.55;99556.81;4934996;28;20074;-61
2023/04/26 10:04:47;;;;;;;13.25;5.32;;;;;;;12.99;44.08;99563.69;4928369;28;20102;-62
2023/04/26 10:07:16;;;;;;;11.13;5.45;;;;;;;13.87;41.87;99556.31;4934922;28;20052;-62
2023/04/26 10:09:43;;;;;;;10.20;5.32;;;;;;;14.30;41.59;99554.50;4936309;28;20071;-59
2023/04/26 10:12:11;;;;;;;11.27;5.32;;;;;;;13.40;40.18;99566.88;4936354;28;20040;-60
2023/04/26 10:14:38;;;;;;;13.25;4.82;;;;;;;14.11;40.94;99550.59;4941716;28;20045;-60
2023/04/26 10:17:07;;;;;;;11.07;4.70;;;;;;;14.90;40.43;99547.06;4935230;28;20043;-60
2023/04/26 10:19:34;;;;;;;11.15;4.95;;;;;;;15.86;36.85;99553.03;4937646;28;20560;-60
2023/04/26 10:22:05;;;;;;;15.05;5.10;;;;;;;11.65;42.68;99544.72;4939550;28;20071;-60
2023/04/26 10:24:32;;;;;;;11.57;4.80;;;;;;;11.18;45.26;99542.22;4938488;28;20055;-60
2023/04/26 10:27:01;;;;;;;12.98;4.82;;;;;;;12.69;44.41;99546.91;4945412;28;20138;-61
2023/04/26 10:30:09;;;;;;;18.33;4.93;;;;;;;12.48;44.22;99542.28;4947161;28;20505;-60
2023/04/26 10:33:13;;;;;;;15.07;5.47;;;;;;;12.52;44.19;99535.38;4933269;28;20070;-61
2023/04/26 10:36:03;;;;;;;10.80;5.03;;;;;;;12.25;43.82;99536.03;4951592;28;20047;-63
2023/04/26 10:38:30;;;;;;;10.90;5.07;;;;;;;12.22;45.09;99536.53;4937734;28;20051;-60
2023/04/26 10:41:27;;;;;;;13.98;5.38;;;;;;;11.44;45.37;99538.97;4944586;28;20043;-60
2023/04/26 10:43:55;;;;;;;11.05;5.00;;;;;;;11.60;46.78;99534.69;4943906;28;20416;-63
2023/04/26 10:46:39;;;;;;;18.15;7.00;;;;;;;11.81;45.33;99530.50;4950107;28;20082;-60
2023/04/26 10:49:15;;;;;;;12.52;5.78;;;;;;;11.22;45.60;99527.28;4944436;28;20135;-60
2023/04/26 10:52:13;;;;;;;16.80;6.38;;;;;;;9.77;48.23;99523.53;4949008;28;20075;-62
2023/04/26 10:54:54;;;;;;;13.93;6.28;;;;;;;8.46;50.82;99528.50;4942726;28;20154;-60
2023/04/26 10:57:21;;;;;;;12.07;5.70;;;;;;;8.19;51.92;99526.06;4944947;28;20086;-60
2023/04/26 11:00:20;;;;;;;15.07;5.80;;;;;;;10.28;48.44;99517.59;4945634;28;20486;-61
2023/04/26 11:02:54;;;;;;;11.13;5.95;;;;;;;11.41;46.99;99512.63;4941820;28;20534;-61
2023/04/26 11:05:54;;;;;;;14.63;6.18;;;;;;;9.75;48.48;99514.94;4941837;28;20519;-61
2023/04/26 11:08:23;;;;;;;10.88;5.57;;;;;;;10.48;47.68;99508.34;4941765;28;20098;-60
2023/04/26 11:10:52;;;;;;;13.02;5.85;;;;;;;11.29;47.73;99516.44;4943949;28;20405;-60
2023/04/26 11:13:19;;;;;;;15.70;5.90;;;;;;;12.28;45.12;99513.25;4947896;28;20047;-61
2023/04/26 11:15:47;;;;;;;12.85;5.70;;;;;;;11.07;44.92;99510.91;4955063;28;20409;-60
2023/04/26 11:18:14;;;;;;;11.95;5.88;;;;;;;11.09;47.43;99500.75;4947318;28;20066;-60
2023/04/26 11:20:43;;;;;;;16.00;6.13;;;;;;;11.59;46.32;99505.41;4938553;28;20043;-61
2023/04/26 11:23:10;;;;;;;12.05;5.47;;;;;;;11.39;46.46;99500.50;4940779;28;20569;-60
2023/04/26 11:25:37;;;;;;;16.73;6.65;;;;;;;11.69;47.34;99497.53;4942623;28;20043;-61
2023/04/26 11:28:04;;;;;;;16.45;5.35;;;;;;;12.03;46.60;99494.88;4938526;28;20852;-60
2023/04/26 11:30:31;;;;;;;16.15;6.00;;;;;;;11.81;45.43;99500.97;4941800;28;20043;-60
2023/04/26 11:32:59;;;;;;;11.50;5.50;;;;;;;12.02;45.21;99495.94;4945874;28;20047;-60
2023/04/26 11:35:26;;;;;;;12.60;5.78;;;;;;;11.93;44.67;99489.34;4949087;28;20078;-61
2023/04/26 11:37:54;;;;;;;13.80;5.82;;;;;;;11.47;44.20;99501.97;4948207;28;20043;-61
2023/04/26 11:40:21;;;;;;;18.67;8.32;;;;;;;12.41;44.95;99495.97;4944993;28;20102;-61
2023/04/26 11:42:48;;;;;;;12.50;6.15;;;;;;;10.51;46.92;99495.31;4939319;28;20048;-61
2023/04/26 11:45:16;;;;;;;11.95;5.90;;;;;;;11.21;47.54;99493.47;4942494;28;20130;-60
2023/04/26 11:47:44;;;;;;;24.73;10.65;;;;;;;11.63;44.61;99490.44;4941270;28;20077;-61
2023/04/26 11:50:11;;;;;;;14.63;5.88;;;;;;;11.94;43.89;99480.25;4952299;28;20050;-61
2023/04/26 11:52:38;;;;;;;10.52;5.40;;;;;;;11.69;44.12;99486.00;4940547;28;20131;-61
2023/04/26 11:55:09;;;;;;;16.55;5.70;;;;;;;11.95;44.57;99482.66;4942527;28;20146;-61
2023/04/26 11:57:36;;;;;;;16.13;6.03;;;;;;;11.33;43.74;99478.13;4937673;28;20304;-61
2023/04/26 12:00:11;;;;;;;16.92;7.00;;;;;;;10.47;46.57;99471.88;4940123;28;20057;-61
2023/04/26 12:02:38;;;;;;;15.30;6.25;;;;;;;10.63;46.63;99476.50;4942133;28;20050;-61
2023/04/26 12:05:07;;;;;;;11.55;5.97;;;;;;;10.94;46.06;99475.25;4949050;28;20038;-61
2023/04/26 12:07:37;;;;;;;15.88;7.32;;;;;;;11.85;45.01;99483.28;4955261;28;20437;-61
2023/04/26 12:10:16;;;;;;;10.35;5.72;;;;;;;10.66;46.22;99480.56;4943849;28;20044;-60
2023/04/26 12:12:50;;;;;;;17.33;5.35;;;;;;;11.32;45.42;99471.13;4937339;28;20138;-60
2023/04/26 12:15:17;;;;;;;12.75;6.18;;;;;;;11.91;44.40;99475.38;4939306;28;20051;-60
2023/04/26 12:17:59;;;;;;;14.98;5.65;;;;;;;12.44;43.29;99477.47;4943165;28;20386;-61